Time;durP1;ratioP1;P1;durP2;ratioP2;P2;SDS_P1;SDS_P2;PMS_P1;PMS_P2;Temp;Humidity;BMP_temperature;BMP_pressure;BME280_temperature;BME280_humidity;BME280_pressure;Samples;Min_cycle;Max_cycle;Signal;HPM_P1;HPM_P2
2022/01/06 00:00:01;;;;;;;;;;;;;;;4.52;73.50;99486.44;4992837;28;19925;-90
2022/01/06 00:02:26;;;;;;;;;;;;;;;4.55;73.35;99499.47;4991844;28;19917;-91
2022/01/06 00:04:52;;;;;;;;;;;;;;;4.59;73.50;99486.28;4990233;28;20012;-91
2022/01/06 00:07:17;;;;;;;;;;;;;;;4.62;73.23;99486.22;5000682;28;19996;-91
2022/01/06 00:09:43;;;;;;;;;;;;;;;4.63;73.26;99488.81;4991226;28;19917;-91
2022/01/06 00:12:12;;;;;;;;;;;;;;;4.65;73.46;99486.16;4990068;28;19997;-91
2022/01/06 00:14:53;;;;;;;;;;;;;;;4.64;73.54;99484.41;4991000;28;19996;-91
2022/01/06 00:23:20;;;;;;;;;;;;;;;4.76;73.62;99485.91;4992217;28;19925;-89
2022/01/06 00:25:49;;;;;;;;;;;;;;;4.76;73.46;99478.03;4990766;28;19920;-91
2022/01/06 00:28:14;;;;;;;;;;;;;;;4.76;73.55;99484.13;4998466;28;19925;-88
2022/01/06 04:22:14;;;;;;;;;;;;;;;2.78;94.44;99657.25;4990295;28;19929;-87
2022/01/06 04:24:47;;;;;;;;;;;;;;;2.70;94.45;99656.50;4991474;28;20423;-88
2022/01/06 04:30:10;;;;;;;;;;;;;;;2.51;94.17;99667.19;4951355;28;19929;-93
2022/01/06 04:32:36;;;;;;;;;;;;;;;2.51;94.05;99677.63;4990224;28;19918;-91
2022/01/06 04:35:12;;;;;;;;;;;;;;;;;;;;;
2022/01/06 04:37:40;;;;;;;;;;;;;;;2.38;93.44;99680.41;4996271;28;19922;-85
2022/01/06 04:40:08;;;;;;;;;;;;;;;2.22;92.96;99685.81;4995490;28;20352;-93
2022/01/06 04:42:45;;;;;;;;;;;;;;;2.14;92.47;99685.03;4995397;28;19925;-91
2022/01/06 04:45:15;;;;;;;;;;;;;;;1.95;92.13;99693.03;4995178;28;20556;-90
2022/01/06 04:47:43;;;;;;;;;;;;;;;1.94;91.77;99690.44;4993912;28;19918;-91
2022/01/06 04:50:23;;;;;;;;;;;;;;;;;;;;;
2022/01/06 04:52:59;;;;;;;;;;;;;;;1.89;90.82;99694.84;4995198;28;19921;-89
2022/01/06 04:55:24;;;;;;;;;;;;;;;1.76;90.58;99709.78;4995055;28;20420;-86
2022/01/06 04:57:49;;;;;;;;;;;;;;;1.65;90.30;99715.06;4996117;28;19925;-89
2022/01/06 05:00:15;;;;;;;;;;;;;;;1.69;92.67;99724.63;4994839;28;19995;-88
2022/01/06 05:02:40;;;;;;;;;;;;;;;1.95;97.31;99727.03;4994726;28;19918;-88
2022/01/06 05:05:06;;;;;;;;;;;;;;;2.20;100.00;99725.91;4994649;28;19921;-89
2022/01/06 05:07:32;;;;;;;;;;;;;;;2.27;100.00;99731.09;4995784;28;19922;-89
2022/01/06 05:09:57;;;;;;;;;;;;;;;2.32;100.00;99736.28;4994941;28;19918;-89
2022/01/06 05:12:23;;;;;;;;;;;;;;;2.38;100.00;99735.31;4994334;28;19918;-88
2022/01/06 05:14:48;;;;;;;;;;;;;;;2.44;100.00;99741.38;4994532;28;20403;-88
2022/01/06 05:17:13;;;;;;;;;;;;;;;2.46;100.00;99741.38;4993003;28;19993;-88
2022/01/06 05:19:39;;;;;;;;;;;;;;;2.54;100.00;99739.53;4994377;28;19926;-89
2022/01/06 05:22:04;;;;;;;;;;;;;;;2.47;100.00;99749.19;4994147;28;20008;-88
2022/01/06 05:24:29;;;;;;;;;;;;;;;2.47;100.00;99758.78;4994344;28;19948;-89
2022/01/06 05:26:56;;;;;;;;;;;;;;;2.46;100.00;99754.44;4995221;28;20059;-89
2022/01/06 05:29:21;;;;;;;;;;;;;;;2.53;100.00;99754.34;4994716;28;19930;-89
2022/01/06 05:31:47;;;;;;;;;;;;;;;2.51;100.00;99756.13;4992681;28;20301;-89
2022/01/06 05:34:12;;;;;;;;;;;;;;;2.50;100.00;99756.13;4995319;28;19922;-89
2022/01/06 05:36:38;;;;;;;;;;;;;;;2.50;100.00;99761.34;4993787;28;19920;-89
2022/01/06 05:39:04;;;;;;;;;;;;;;;2.53;100.00;99762.19;4993795;28;20063;-89
2022/01/06 05:41:29;;;;;;;;;;;;;;;2.49;100.00;99763.13;4993931;28;20344;-90
2022/01/06 08:24:25;;;;;;;;;;;;;;;2.49;81.39;99921.78;5817236;23;20300;-91
2022/01/06 08:26:51;;;;;;;;;;;;;;;2.49;81.35;99920.06;5014878;28;21352;-90
2022/01/06 08:29:16;;;;;;;;;;;;;;;2.48;81.35;99923.56;5001619;28;19948;-91
2022/01/06 08:31:41;;;;;;;;;;;;;;;2.51;81.33;99923.53;5002688;28;19917;-90
2022/01/06 08:34:07;;;;;;;;;;;;;;;2.52;81.19;99929.63;5000713;28;20301;-90
2022/01/06 08:36:33;;;;;;;;;;;;;;;2.53;81.17;99926.13;5002156;28;19914;-90
2022/01/06 08:38:58;;;;;;;;;;;;;;;2.54;81.13;99928.75;4999229;28;19979;-90
2022/01/06 08:41:24;;;;;;;;;;;;;;;2.51;80.88;99928.75;5001610;28;19929;-90
2022/01/06 08:43:49;;;;;;;;;;;;;;;2.51;80.79;99927.91;5001617;28;19921;-90
2022/01/06 08:46:15;;;;;;;;;;;;;;;2.53;80.70;99932.22;5002251;28;20952;-90
2022/01/06 08:48:40;;;;;;;;;;;;;;;2.56;80.69;99933.09;5000759;28;19917;-90
2022/01/06 08:51:05;;;;;;;;;;;;;;;2.56;80.41;99931.34;5001371;28;19926;-90
2022/01/06 08:53:31;;;;;;;;;;;;;;;2.58;80.50;99929.56;4982552;28;19926;-90
2022/01/06 08:55:56;;;;;;;;;;;;;;;2.56;80.33;99933.97;4980927;28;19918;-89
2022/01/06 08:58:21;;;;;;;;;;;;;;;2.57;80.31;99938.31;4979946;28;19918;-90
2022/01/06 09:00:47;;;;;;;;;;;;;;;2.53;79.95;99937.44;4980882;28;20037;-90
2022/01/06 09:03:12;;;;;;;;;;;;;;;2.55;79.94;99934.81;4984205;28;19966;-90
2022/01/06 09:05:38;;;;;;;;;;;;;;;2.55;79.71;99940.06;4981929;28;19929;-90
2022/01/06 09:08:04;;;;;;;;;;;;;;;2.55;79.63;99940.06;4982341;28;20043;-90
2022/01/06 09:10:31;;;;;;;;;;;;;;;2.57;79.40;99948.78;4979909;28;19917;-90
2022/01/06 09:13:00;;;;;;;;;;;;;;;2.59;79.25;99957.47;4982124;28;19919;-90
2022/01/06 09:15:26;;;;;;;;;;;;;;;2.57;79.08;99964.47;4997992;28;19918;-90
2022/01/06 09:17:51;;;;;;;;;;;;;;;2.60;79.11;99961.84;4984344;28;19918;-89
2022/01/06 09:20:17;;;;;;;;;;;;;;;2.59;79.01;99962.72;4987089;28;20432;-90
2022/01/06 09:22:43;;;;;;;;;;;;;;;2.63;79.12;99956.59;4985826;28;19917;-90
2022/01/06 09:25:09;;;;;;;;;;;;;;;2.66;79.39;99966.16;4985141;28;19926;-90
2022/01/06 09:27:34;;;;;;;;;;;;;;;2.66;79.21;99961.78;4985468;28;19928;-90
2022/01/06 09:30:00;;;;;;;;;;;;;;;2.65;79.17;99962.66;4984076;28;20362;-89
2022/01/06 09:32:25;;;;;;;;;;;;;;;2.67;78.91;99965.28;4984887;28;19925;-90
2022/01/06 09:34:51;;;;;;;;;;;;;;;2.64;78.83;99967.91;4985485;28;19964;-90
2022/01/06 09:37:18;;;;;;;;;;;;;;;2.66;78.68;99969.63;4983498;28;19918;-91
2022/01/06 09:39:43;;;;;;;;;;;;;;;2.68;78.64;99974.84;4984370;28;19922;-90
2022/01/06 09:42:09;;;;;;;;;;;;;;;2.72;78.68;99979.19;4983997;28;19925;-90
2022/01/06 09:44:36;;;;;;;;;;;;;;;2.71;78.59;99977.44;4984363;28;19922;-90
2022/01/06 09:47:15;;;;;;;;;;;;;;;;;;;;;
2022/01/06 09:49:44;;;;;;;;;;;;;;;2.76;78.54;99985.25;4981475;28;19926;-89
2022/01/06 09:52:10;;;;;;;;;;;;;;;2.75;78.44;99983.53;4985359;28;19925;-90
2022/01/06 09:54:36;;;;;;;;;;;;;;;2.77;78.32;99992.25;4979775;28;19922;-90
2022/01/06 09:57:01;;;;;;;;;;;;;;;2.74;78.08;99995.72;4983993;28;19922;-90
2022/01/06 09:59:27;;;;;;;;;;;;;;;2.78;78.10;99996.59;4984149;28;19921;-91
2022/01/06 10:01:52;;;;;;;;;;;;;;;2.80;77.75;100000.06;4984055;28;19914;-89
2022/01/06 10:04:28;;;;;;;;;;;;;;;2.80;78.64;100007.91;4982872;28;20013;-88
2022/01/06 10:06:58;;;;;;;;;;;;;;;2.78;79.07;99999.22;4991201;28;19943;-89
2022/01/06 10:09:23;;;;;;;;;;;;;;;2.84;79.46;99997.41;4982901;28;19973;-88
2022/01/06 10:11:48;;;;;;;;;;;;;;;2.85;79.79;100003.50;4984129;28;19918;-89
2022/01/06 10:14:20;;;;;;;;;;;;;;;2.87;79.88;99999.13;4984693;28;19918;-89
2022/01/06 10:16:49;;;;;;;;;;;;;;;2.85;79.73;99996.50;4983445;28;19936;-89
2022/01/06 10:19:15;;;;;;;;;;;;;;;2.92;80.11;100002.59;4983384;28;20020;-89
2022/01/06 10:21:42;;;;;;;;;;;;;;;2.92;79.97;100005.22;4982242;28;20172;-90
2022/01/06 10:24:19;;;;;;;;;;;;;;;2.91;79.65;100000.84;4980350;28;20636;-89
2022/01/06 10:26:50;;;;;;;;;;;;;;;2.93;79.39;99995.59;4982072;28;19984;-89
2022/01/06 10:29:16;;;;;;;;;;;;;;;2.93;79.51;99991.22;4982459;28;19918;-89
2022/01/06 10:31:41;;;;;;;;;;;;;;;2.98;79.40;99994.66;4980090;28;19929;-90
2022/01/06 10:34:07;;;;;;;;;;;;;;;2.95;79.07;99994.69;4985578;28;19925;-90
2022/01/06 10:36:36;;;;;;;;;;;;;;;2.95;78.79;100002.53;4982827;28;19923;-90
2022/01/06 10:39:03;;;;;;;;;;;;;;;3.01;78.94;100001.63;4980784;28;19984;-89
2022/01/06 10:41:29;;;;;;;;;;;;;;;3.01;78.85;99996.41;4983248;28;19929;-89
2022/01/06 10:43:56;;;;;;;;;;;;;;;3.02;78.74;99993.78;4984194;28;19922;-91
2022/01/06 10:46:27;;;;;;;;;;;;;;;3.07;78.66;99986.72;4982702;28;19964;-89
2022/01/06 10:48:56;;;;;;;;;;;;;;;3.05;78.62;99978.03;4981751;28;19972;-89
2022/01/06 10:51:30;;;;;;;;;;;;;;;3.06;78.12;99981.50;4988644;28;19926;-89
2022/01/06 10:53:55;;;;;;;;;;;;;;;3.06;78.26;99984.13;4979756;28;19926;-88
2022/01/06 10:56:23;;;;;;;;;;;;;;;3.11;77.99;99976.25;4982304;28;19914;-90
2022/01/06 10:58:49;;;;;;;;;;;;;;;3.12;78.16;99977.97;4982731;28;19922;-89
2022/01/06 11:01:16;;;;;;;;;;;;;;;3.12;77.83;99981.47;4983823;28;20053;-89
2022/01/06 11:03:41;;;;;;;;;;;;;;;3.17;77.77;99981.41;4998523;28;19918;-88
2022/01/06 11:06:06;;;;;;;;;;;;;;;3.15;77.42;99983.19;4984639;28;20680;-91
2022/01/06 11:08:36;;;;;;;;;;;;;;;3.15;77.27;99977.97;4981431;28;20377;-89
2022/01/06 11:13:33;;;;;;;;;;;;;;;3.20;77.04;99978.78;4984123;28;19967;-89
2022/01/06 11:15:59;;;;;;;;;;;;;;;3.23;77.01;99987.47;4982243;28;20436;-89
2022/01/06 11:18:25;;;;;;;;;;;;;;;3.21;76.66;99983.13;4982644;28;19960;-90
2022/01/06 11:20:51;;;;;;;;;;;;;;;3.22;76.33;99982.25;4980352;28;20007;-90
2022/01/06 11:23:23;;;;;;;;;;;;;;;3.27;76.55;99986.56;4983897;28;19982;-87
2022/01/06 11:26:01;;;;;;;;;;;;;;;3.27;76.45;99989.19;4999192;28;19922;-90
2022/01/06 11:28:29;;;;;;;;;;;;;;;3.27;76.25;99988.28;4981600;28;20696;-89
2022/01/06 11:30:56;;;;;;;;;;;;;;;3.27;76.21;99981.31;4982072;28;19925;-90
2022/01/06 11:33:24;;;;;;;;;;;;;;;3.33;76.06;99987.38;4984133;28;19917;-89
2022/01/06 11:35:50;;;;;;;;;;;;;;;3.34;76.11;99982.13;4982377;28;19929;-90
2022/01/06 11:38:20;;;;;;;;;;;;;;;3.38;76.35;99991.69;4982549;28;19925;-88
2022/01/06 11:40:46;;;;;;;;;;;;;;;3.40;76.35;99984.69;4979884;28;19925;-91
2022/01/06 11:43:12;;;;;;;;;;;;;;;3.39;76.34;99982.06;4979429;28;19928;-89
2022/01/06 11:45:37;;;;;;;;;;;;;;;3.40;76.28;99987.31;4981988;28;19927;-91
2022/01/06 11:48:04;;;;;;;;;;;;;;;3.43;76.37;99986.38;4982197;28;19949;-90
2022/01/06 11:50:35;;;;;;;;;;;;;;;3.46;76.44;99981.13;4983028;28;19933;-90
2022/01/06 11:53:01;;;;;;;;;;;;;;;3.46;76.42;99981.13;4978603;28;19968;-90
2022/01/06 11:55:40;;;;;;;;;;;;;;;3.47;76.20;99989.88;4980310;28;19922;-89
2022/01/06 11:58:22;;;;;;;;;;;;;;;3.50;76.16;99995.94;4983106;28;19988;-90
2022/01/06 12:00:55;;;;;;;;;;;;;;;3.48;75.77;99992.47;4980033;28;20393;-90
2022/01/06 12:03:20;;;;;;;;;;;;;;;3.51;75.49;99987.19;4981457;28;19980;-90
2022/01/06 12:05:52;;;;;;;;;;;;;;;3.50;75.33;99984.59;4979552;28;19922;-89
2022/01/06 12:08:39;;;;;;;;;;;;;;;3.54;75.32;99978.41;4980242;28;19964;-89
2022/01/06 12:11:04;;;;;;;;;;;;;;;3.54;75.13;99981.94;4981725;28;19930;-91
2022/01/06 12:13:30;;;;;;;;;;;;;;;3.56;75.04;99977.53;4983055;28;20751;-90
2022/01/06 12:15:57;;;;;;;;;;;;;;;3.61;75.16;99982.72;4981126;28;19924;-91
2022/01/06 12:18:23;;;;;;;;;;;;;;;3.59;75.00;99979.22;4982296;28;19922;-89
2022/01/06 12:20:49;;;;;;;;;;;;;;;3.68;75.05;99981.75;4981077;28;19924;-91
2022/01/06 12:23:23;;;;;;;;;;;;;;;3.67;75.51;99980.03;4981943;28;19926;-90
2022/01/06 12:26:12;;;;;;;;;;;;;;;3.70;76.03;99976.50;4982324;28;19953;-90
2022/01/06 12:28:50;;;;;;;;;;;;;;;3.72;76.62;99969.47;4979164;28;20012;-90
2022/01/06 12:31:23;;;;;;;;;;;;;;;3.73;76.33;99969.44;4998364;28;19980;-89
2022/01/06 12:33:49;;;;;;;;;;;;;;;3.75;76.53;99970.31;4982424;28;19929;-90
2022/01/06 12:36:21;;;;;;;;;;;;;;;3.79;76.67;99969.38;4981305;28;20024;-89
2022/01/06 12:38:46;;;;;;;;;;;;;;;3.79;76.71;99963.28;4980143;28;19930;-90
2022/01/06 12:41:12;;;;;;;;;;;;;;;3.85;76.50;99973.69;4978825;28;19937;-90
2022/01/06 12:43:38;;;;;;;;;;;;;;;3.84;76.34;99965.84;4982163;28;19917;-90
2022/01/06 12:46:07;;;;;;;;;;;;;;;3.82;75.88;99966.72;4981356;28;19961;-89
2022/01/06 12:48:34;;;;;;;;;;;;;;;3.89;76.14;99971.91;4982883;28;19932;-90
2022/01/06 12:50:59;;;;;;;;;;;;;;;3.99;75.98;99968.28;4979569;28;19922;-90
2022/01/06 12:53:30;;;;;;;;;;;;;;;4.20;77.48;99967.13;4980806;28;19980;-90
2022/01/06 12:55:56;;;;;;;;;;;;;;;4.32;79.03;99972.22;4999343;28;20602;-91
2022/01/06 12:58:25;;;;;;;;;;;;;;;4.40;80.64;99973.84;4983112;28;19922;-92
2022/01/06 13:00:54;;;;;;;;;;;;;;;4.43;81.83;99964.16;4985012;28;19918;-91
2022/01/06 13:03:33;;;;;;;;;;;;;;;4.43;82.91;99963.28;4987061;28;19967;-91
2022/01/06 13:05:59;;;;;;;;;;;;;;;4.39;84.13;99970.34;4985172;28;19922;-90
2022/01/06 13:08:25;;;;;;;;;;;;;;;4.33;85.14;99962.56;4985864;28;19961;-91
2022/01/06 13:11:07;;;;;;;;;;;;;;;4.27;86.03;99963.50;4985648;28;19948;-91
2022/01/06 13:13:52;;;;;;;;;;;;;;;4.16;87.00;99960.16;5000755;28;20389;-90
2022/01/06 13:16:21;;;;;;;;;;;;;;;4.03;88.10;99958.63;4984510;28;19973;-90
2022/01/06 13:18:53;;;;;;;;;;;;;;;3.93;89.02;99952.63;5002029;28;20397;-91
2022/01/06 13:21:41;;;;;;;;;;;;;;;3.93;90.83;99958.72;4985296;28;19922;-91
2022/01/06 13:24:33;;;;;;;;;;;;;;;4.01;93.24;99950.78;5000905;28;19925;-92
2022/01/06 13:27:00;;;;;;;;;;;;;;;4.31;96.73;99962.59;4983251;28;19922;-91
2022/01/06 13:29:26;;;;;;;;;;;;;;;4.59;100.00;99953.44;5000060;28;19961;-91
2022/01/06 13:32:12;;;;;;;;;;;;;;;4.78;100.00;99951.38;4985868;28;19918;-91
2022/01/06 13:35:00;;;;;;;;;;;;;;;4.93;100.00;99953.75;4985650;28;19924;-91
2022/01/06 13:37:28;;;;;;;;;;;;;;;5.05;100.00;99952.66;4985821;28;19925;-92
2022/01/06 13:39:58;;;;;;;;;;;;;;;5.13;100.00;99949.91;4984481;28;20309;-92
2022/01/06 13:42:26;;;;;;;;;;;;;;;5.22;100.00;99944.50;4985171;28;19940;-92
2022/01/06 13:44:57;;;;;;;;;;;;;;;5.29;100.00;99943.47;4984050;28;19917;-91
2022/01/06 13:47:33;;;;;;;;;;;;;;;5.36;100.00;99933.69;4983608;28;20020;-91
2022/01/06 13:52:47;;;;;;;;;;;;;;;5.49;100.00;99929.97;4985249;28;19925;-92
2022/01/06 13:55:38;;;;;;;;;;;;;;;;;;;;;
2022/01/06 13:58:04;;;;;;;;;;;;;;;5.64;100.00;99929.63;4985008;28;19924;-93
2022/01/06 14:00:31;;;;;;;;;;;;;;;5.70;100.00;99930.44;4984522;28;20004;-92
2022/01/06 14:02:59;;;;;;;;;;;;;;;5.77;100.00;99924.13;4983480;28;20365;-92
2022/01/06 14:05:25;;;;;;;;;;;;;;;5.81;100.00;99923.19;4985860;28;19954;-92
2022/01/06 14:07:50;;;;;;;;;;;;;;;5.84;100.00;99915.22;4983819;28;19953;-93
2022/01/06 14:10:15;;;;;;;;;;;;;;;5.89;100.00;99926.50;5002414;28;19933;-92
2022/01/06 14:12:41;;;;;;;;;;;;;;;5.92;100.00;99931.69;4984754;28;19918;-92
2022/01/06 14:15:06;;;;;;;;;;;;;;;5.96;100.00;99928.13;4983720;28;19922;-93
2022/01/06 14:17:32;;;;;;;;;;;;;;;6.02;100.00;99928.91;4984894;28;19996;-91
2022/01/06 14:19:58;;;;;;;;;;;;;;;6.06;100.00;99934.03;4986512;28;20301;-91
2022/01/06 14:22:26;;;;;;;;;;;;;;;6.09;100.00;99939.25;4985453;28;19922;-90
2022/01/06 14:24:52;;;;;;;;;;;;;;;6.15;100.00;99948.78;4983756;28;19926;-91
2022/01/06 14:27:17;;;;;;;;;;;;;;;6.19;100.00;99947.81;5004245;28;19921;-93
2022/01/06 14:29:42;;;;;;;;;;;;;;;5.50;100.00;99960.59;4982714;28;20353;-92
2022/01/06 14:32:08;;;;;;;;;;;;;;;4.84;100.00;99960.00;4983284;28;19925;-91
2022/01/06 14:34:34;;;;;;;;;;;;;;;4.58;100.00;99962.19;4986693;28;20024;-93
2022/01/06 14:36:59;;;;;;;;;;;;;;;4.47;100.00;99960.59;4984574;28;20297;-93
2022/01/06 14:39:25;;;;;;;;;;;;;;;4.34;100.00;99961.66;4982276;28;19950;-92
2022/01/06 14:41:50;;;;;;;;;;;;;;;4.25;100.00;99959.19;4984431;28;19917;-91
2022/01/06 14:44:18;;;;;;;;;;;;;;;4.12;100.00;99959.34;4983715;28;19924;-91
2022/01/06 14:46:45;;;;;;;;;;;;;;;4.09;100.00;99955.91;4985391;28;20020;-93
2022/01/06 14:49:11;;;;;;;;;;;;;;;4.03;99.25;99959.47;4999528;28;19924;-92
2022/01/06 14:51:38;;;;;;;;;;;;;;;3.93;98.28;99968.34;4981175;28;20016;-92
2022/01/06 14:54:04;;;;;;;;;;;;;;;3.87;97.56;99963.19;4981775;28;20384;-92
2022/01/06 14:56:29;;;;;;;;;;;;;;;3.84;96.85;99963.22;4983246;28;19914;-92
2022/01/06 14:58:54;;;;;;;;;;;;;;;3.77;96.28;99968.53;4986626;28;20404;-92
2022/01/06 15:01:20;;;;;;;;;;;;;;;3.73;95.55;99961.59;4983533;28;20284;-91
2022/01/06 15:03:45;;;;;;;;;;;;;;;3.69;94.86;99961.66;4984221;28;19924;-92
2022/01/06 15:06:10;;;;;;;;;;;;;;;3.63;94.23;99966.06;4982087;28;20329;-92
2022/01/06 15:08:36;;;;;;;;;;;;;;;3.60;93.56;99966.09;4983452;28;20709;-91
2022/01/06 15:11:01;;;;;;;;;;;;;;;3.54;93.06;99962.69;4983542;28;20373;-91
2022/01/06 15:13:26;;;;;;;;;;;;;;;3.48;92.47;99955.78;4982494;28;19922;-90
2022/01/06 15:15:53;;;;;;;;;;;;;;;3.45;91.89;99961.06;4982744;28;20061;-90
2022/01/06 15:18:19;;;;;;;;;;;;;;;3.39;91.62;99969.84;4982090;28;20278;-91
2022/01/06 15:20:44;;;;;;;;;;;;;;;3.35;91.30;99965.53;4981366;28;19922;-91
2022/01/06 15:23:09;;;;;;;;;;;;;;;3.34;91.01;99962.94;4984712;28;19918;-91
2022/01/06 15:25:35;;;;;;;;;;;;;;;3.28;90.87;99964.69;4983565;28;19933;-91
2022/01/06 15:28:00;;;;;;;;;;;;;;;3.25;90.55;99966.50;4983967;28;19939;-90
2022/01/06 15:30:25;;;;;;;;;;;;;;;3.22;90.54;99966.53;4982967;28;19999;-90
2022/01/06 15:32:51;;;;;;;;;;;;;;;3.20;90.34;99960.44;4984791;28;19953;-92
2022/01/06 15:35:16;;;;;;;;;;;;;;;3.17;90.08;99971.81;4979981;28;20296;-90
2022/01/06 15:37:43;;;;;;;;;;;;;;;3.14;89.92;99970.97;4998729;28;20520;-90
2022/01/06 15:40:09;;;;;;;;;;;;;;;3.15;89.88;99973.56;4982898;28;19929;-90
2022/01/06 15:42:35;;;;;;;;;;;;;;;3.08;89.77;99972.78;4983350;28;19922;-91
2022/01/06 15:45:00;;;;;;;;;;;;;;;3.07;89.77;99978.88;4984591;28;20294;-91
2022/01/06 15:47:25;;;;;;;;;;;;;;;3.08;89.82;99977.16;4983095;28;20045;-91
2022/01/06 15:49:54;;;;;;;;;;;;;;;3.06;89.69;99974.53;4980511;28;19960;-91
2022/01/06 15:52:19;;;;;;;;;;;;;;;3.01;89.64;99981.56;4981995;28;19919;-91
2022/01/06 15:54:47;;;;;;;;;;;;;;;2.99;89.62;99982.47;4979613;28;22723;-89
2022/01/06 15:57:12;;;;;;;;;;;;;;;2.97;89.73;99998.19;4984259;28;19922;-91
2022/01/06 15:59:42;;;;;;;;;;;;;;;2.97;89.62;99998.19;4983300;28;19968;-89
2022/01/06 16:07:35;;;;;;;;;;;;;;;3.05;90.96;100005.97;4984415;28;19928;-90
2022/01/06 16:10:02;;;;;;;;;;;;;;;3.03;90.98;100011.22;4978921;28;19922;-91
2022/01/06 16:12:27;;;;;;;;;;;;;;;2.97;90.85;100011.28;4997081;28;19941;-91
2022/01/06 16:14:55;;;;;;;;;;;;;;;2.99;90.84;100019.97;4981196;28;20302;-92
2022/01/06 16:17:21;;;;;;;;;;;;;;;2.95;90.64;100017.38;4981374;28;19918;-91
2022/01/06 16:19:48;;;;;;;;;;;;;;;2.95;90.61;100017.38;4984229;28;19972;-89
2022/01/06 16:22:14;;;;;;;;;;;;;;;2.95;90.55;100018.25;4983239;28;19966;-90
2022/01/06 16:24:39;;;;;;;;;;;;;;;2.95;90.55;100020.88;4981623;28;20889;-90
2022/01/06 16:27:07;;;;;;;;;;;;;;;2.92;90.37;100028.78;4977675;28;19929;-90
2022/01/06 16:29:32;;;;;;;;;;;;;;;2.87;90.26;100031.41;4982515;28;20443;-92
2022/01/06 16:32:05;;;;;;;;;;;;;;;2.86;90.10;100028.81;4981424;28;20000;-91
2022/01/06 16:34:30;;;;;;;;;;;;;;;2.85;90.04;100038.41;4981726;28;20399;-89
2022/01/06 16:37:01;;;;;;;;;;;;;;;2.84;90.01;100035.78;4981708;28;20004;-91
2022/01/06 16:39:26;;;;;;;;;;;;;;;2.83;89.97;100034.06;4978801;28;19927;-90
2022/01/06 16:41:52;;;;;;;;;;;;;;;2.81;89.82;100028.84;4983059;28;20437;-91
2022/01/06 16:44:17;;;;;;;;;;;;;;;2.77;89.74;100034.97;4985510;28;19929;-90
2022/01/06 16:46:43;;;;;;;;;;;;;;;2.77;89.68;100028.88;4980776;28;19922;-90
2022/01/06 16:49:09;;;;;;;;;;;;;;;2.75;89.55;100033.25;4983251;28;19922;-91
2022/01/06 16:51:35;;;;;;;;;;;;;;;2.74;89.53;100029.75;4979935;28;19976;-91
2022/01/06 16:54:00;;;;;;;;;;;;;;;2.71;89.52;100038.50;4980055;28;19975;-93
2022/01/06 16:56:26;;;;;;;;;;;;;;;2.72;89.37;100035.00;4980130;28;20345;-90
2022/01/06 16:58:54;;;;;;;;;;;;;;;2.69;89.21;100037.63;4981307;28;19929;-91
2022/01/06 17:01:21;;;;;;;;;;;;;;;2.70;89.23;100034.16;4981336;28;20297;-91
2022/01/06 17:03:48;;;;;;;;;;;;;;;2.67;89.08;100039.41;4977949;28;19922;-89
2022/01/06 17:06:13;;;;;;;;;;;;;;;2.64;88.94;100039.41;4980752;28;19969;-90
2022/01/06 17:08:40;;;;;;;;;;;;;;;2.64;88.92;100055.13;4982477;28;20048;-91
2022/01/06 17:11:05;;;;;;;;;;;;;;;2.61;88.75;100047.28;4983135;28;19922;-88
2022/01/06 17:13:30;;;;;;;;;;;;;;;2.61;88.66;100055.13;4983827;28;20281;-91
2022/01/06 17:15:56;;;;;;;;;;;;;;;2.61;88.55;100047.28;4982337;28;20274;-89
2022/01/06 17:18:21;;;;;;;;;;;;;;;2.60;88.50;100055.16;4982796;28;19918;-91
2022/01/06 17:20:47;;;;;;;;;;;;;;;2.59;88.54;100051.66;4981736;28;20373;-88
2022/01/06 17:23:12;;;;;;;;;;;;;;;2.57;88.47;100053.44;4981238;28;19918;-91
2022/01/06 17:25:38;;;;;;;;;;;;;;;2.55;88.46;100052.56;4980913;28;20351;-88
2022/01/06 17:28:06;;;;;;;;;;;;;;;2.56;88.13;100051.69;4997322;28;19922;-89
2022/01/06 17:30:31;;;;;;;;;;;;;;;2.54;88.04;100059.53;4981546;28;19922;-91
2022/01/06 17:32:56;;;;;;;;;;;;;;;2.51;88.03;100050.84;4980390;28;19922;-90
2022/01/06 17:35:22;;;;;;;;;;;;;;;2.50;87.87;100049.97;4981803;28;20393;-88
2022/01/06 17:37:47;;;;;;;;;;;;;;;2.49;87.59;100060.44;4980930;28;19922;-91
2022/01/06 17:40:12;;;;;;;;;;;;;;;2.46;87.53;100050.88;4984336;28;20470;-90
2022/01/06 17:42:38;;;;;;;;;;;;;;;2.48;87.33;100056.09;4982982;28;19927;-91
2022/01/06 17:45:04;;;;;;;;;;;;;;;2.46;87.28;100052.63;4982835;28;19969;-90
2022/01/06 17:47:29;;;;;;;;;;;;;;;2.47;87.25;100054.34;4985026;28;19961;-90
2022/01/06 17:49:55;;;;;;;;;;;;;;;2.44;87.09;100049.13;4984838;28;19933;-90
2022/01/06 17:52:20;;;;;;;;;;;;;;;2.42;87.10;100053.50;4985089;28;20433;-90
2022/01/06 17:54:45;;;;;;;;;;;;;;;2.42;86.95;100050.91;4986009;28;19925;-90
2022/01/06 17:57:11;;;;;;;;;;;;;;;2.41;86.78;100047.41;4984594;28;19922;-90
2022/01/06 17:59:36;;;;;;;;;;;;;;;2.39;86.73;100050.91;4984905;28;20400;-90
2022/01/06 18:02:02;;;;;;;;;;;;;;;2.41;86.79;100051.75;4984823;28;19918;-90
2022/01/06 18:04:29;;;;;;;;;;;;;;;2.39;86.81;100048.28;4981692;28;20377;-90
2022/01/06 18:06:57;;;;;;;;;;;;;;;2.37;86.53;100045.69;4984524;28;19932;-89
2022/01/06 18:11:49;;;;;;;;;;;;;;;2.37;86.46;100043.06;4984774;28;19976;-89
2022/01/06 18:14:16;;;;;;;;;;;;;;;2.33;86.35;100047.44;4982918;28;20016;-90
2022/01/06 18:16:43;;;;;;;;;;;;;;;2.34;86.56;100053.53;4982040;28;20403;-89
2022/01/06 18:19:09;;;;;;;;;;;;;;;2.33;86.34;100050.06;4985194;28;20011;-89
2022/01/06 18:21:34;;;;;;;;;;;;;;;2.30;86.25;100050.09;5003255;28;20004;-90
2022/01/06 18:23:59;;;;;;;;;;;;;;;2.30;86.06;100055.31;4988032;28;19922;-90
2022/01/06 18:26:26;;;;;;;;;;;;;;;2.27;86.01;100054.47;4986424;28;19922;-89
2022/01/06 18:28:51;;;;;;;;;;;;;;;2.26;85.84;100056.19;4984011;28;19926;-89
2022/01/06 18:31:17;;;;;;;;;;;;;;;2.30;85.74;100052.69;4983957;28;19940;-91
2022/01/06 18:33:44;;;;;;;;;;;;;;;2.28;85.64;100059.69;4987518;28;19925;-90
2022/01/06 18:36:12;;;;;;;;;;;;;;;2.26;85.63;100058.81;4984170;28;20053;-90
2022/01/06 18:38:38;;;;;;;;;;;;;;;2.28;85.64;100056.19;4980369;28;19925;-88
2022/01/06 18:41:04;;;;;;;;;;;;;;;2.26;85.43;100058.81;4985563;28;19929;-91
2022/01/06 18:43:29;;;;;;;;;;;;;;;2.26;85.42;100047.50;4983010;28;20440;-90
2022/01/06 18:45:55;;;;;;;;;;;;;;;2.26;85.32;100052.72;4983957;28;19929;-90
2022/01/06 18:48:22;;;;;;;;;;;;;;;2.23;85.38;100057.97;4989383;28;19918;-90
2022/01/06 18:50:51;;;;;;;;;;;;;;;2.24;85.29;100054.47;4980886;28;19922;-90
2022/01/06 18:53:17;;;;;;;;;;;;;;;2.25;85.27;100056.19;5001121;28;19944;-89
2022/01/06 18:55:42;;;;;;;;;;;;;;;2.22;85.22;100049.25;4985380;28;20017;-89
2022/01/06 18:58:08;;;;;;;;;;;;;;;2.21;84.88;100039.66;4983008;28;20008;-89
2022/01/06 19:00:33;;;;;;;;;;;;;;;2.18;84.84;100037.91;4984911;28;20863;-89
2022/01/06 19:02:59;;;;;;;;;;;;;;;2.23;85.04;100040.50;4983887;28;20293;-89
2022/01/06 19:05:25;;;;;;;;;;;;;;;2.18;84.86;100037.91;4983086;28;19929;-89
2022/01/06 19:07:54;;;;;;;;;;;;;;;2.21;84.63;100031.81;4983926;28;19989;-89
2022/01/06 19:10:19;;;;;;;;;;;;;;;2.16;84.51;100036.19;4982683;28;20051;-89
2022/01/06 19:12:44;;;;;;;;;;;;;;;2.15;84.32;100037.06;4983782;28;19981;-88
2022/01/06 19:15:10;;;;;;;;;;;;;;;2.20;84.39;100037.06;4982988;28;19972;-89
2022/01/06 19:17:35;;;;;;;;;;;;;;;2.18;84.33;100039.66;4982823;28;19925;-91
2022/01/06 19:20:04;;;;;;;;;;;;;;;2.16;84.30;100037.06;4986676;28;19975;-90
2022/01/06 19:22:30;;;;;;;;;;;;;;;2.17;84.38;100035.31;4983593;28;19953;-90
2022/01/06 19:24:55;;;;;;;;;;;;;;;2.15;83.93;100042.28;4983643;28;19972;-90
2022/01/06 19:27:20;;;;;;;;;;;;;;;2.20;83.98;100042.28;4981109;28;20016;-91
2022/01/06 19:29:46;;;;;;;;;;;;;;;2.17;83.86;100043.16;4982487;28;20416;-89
2022/01/06 19:32:11;;;;;;;;;;;;;;;2.16;83.71;100044.03;4983180;28;20373;-90
2022/01/06 19:34:37;;;;;;;;;;;;;;;2.17;83.39;100045.75;4985407;28;19972;-90
2022/01/06 19:37:02;;;;;;;;;;;;;;;2.20;83.46;100042.28;4985478;28;20048;-90
2022/01/06 19:39:30;;;;;;;;;;;;;;;2.15;83.20;100044.91;4981030;28;19918;-90
2022/01/06 19:41:55;;;;;;;;;;;;;;;2.15;83.18;100037.06;4983729;28;20452;-90
2022/01/06 19:44:21;;;;;;;;;;;;;;;2.15;83.26;100045.81;4982435;28;20004;-90
2022/01/06 19:46:46;;;;;;;;;;;;;;;2.13;83.02;100041.44;4982344;28;19929;-90
2022/01/06 19:49:11;;;;;;;;;;;;;;;2.16;82.88;100044.03;4982624;28;19921;-90
2022/01/06 19:51:37;;;;;;;;;;;;;;;2.09;82.74;100042.31;4982794;28;20262;-90